createdAt,value
2018-08-25T00:00:34.710Z,14.61
2018-08-25T00:03:04.096Z,14.54
2018-08-25T00:05:33.854Z,14.46
2018-08-25T00:08:03.254Z,14.46
2018-08-25T00:10:33.254Z,14.48
2018-08-25T00:13:02.691Z,14.51
2018-08-25T00:15:32.084Z,14.48
2018-08-25T00:18:02.503Z,14.35
2018-08-25T00:20:32.867Z,14.35
2018-08-25T00:23:03.756Z,14.35
2018-08-25T00:25:33.436Z,14.41
2018-08-25T00:28:03.483Z,14.41
2018-08-25T00:30:37.999Z,14.44
2018-08-25T00:33:07.422Z,14.44
2018-08-25T00:35:37.293Z,14.41
2018-08-25T00:38:06.718Z,14.40
2018-08-25T00:40:38.231Z,14.41
2018-08-25T00:43:07.726Z,14.42
2018-08-25T00:45:37.403Z,14.43
2018-08-25T00:48:08.550Z,14.48
2018-08-25T00:50:37.968Z,14.46
2018-08-25T00:53:07.394Z,14.47
2018-08-25T00:55:37.576Z,14.45
2018-08-25T00:58:08.499Z,14.45
2018-08-25T01:00:37.943Z,14.48
2018-08-25T01:03:08.251Z,14.47
2018-08-25T01:05:38.172Z,14.41
2018-08-25T01:08:08.081Z,14.44
2018-08-25T01:10:38.679Z,14.38
2018-08-25T01:13:10.019Z,14.24
2018-08-25T01:15:39.432Z,14.19
2018-08-25T01:18:09.903Z,14.11
2018-08-25T01:20:39.295Z,14.16
2018-08-25T01:23:08.906Z,14.13
2018-08-25T01:25:39.215Z,14.15
2018-08-25T01:28:09.684Z,14.13
2018-08-25T01:30:39.287Z,14.16
2018-08-25T01:33:09.086Z,14.23
2018-08-25T01:35:39.436Z,14.24
2018-08-25T01:38:09.435Z,14.28
2018-08-25T01:40:40.648Z,14.30
2018-08-25T01:43:11.692Z,14.24
2018-08-25T01:45:41.042Z,14.17
2018-08-25T01:48:10.790Z,14.10
2018-08-25T01:50:41.110Z,14.07
2018-08-25T01:53:10.861Z,13.98
2018-08-25T01:55:40.338Z,13.90
2018-08-25T01:58:09.709Z,13.90
2018-08-25T02:00:39.058Z,13.92
2018-08-25T02:03:08.849Z,13.94
2018-08-25T02:05:38.283Z,13.94
2018-08-25T02:08:08.135Z,13.91
2018-08-25T02:10:37.498Z,13.87
2018-08-25T02:13:06.894Z,13.87
2018-08-25T02:15:36.211Z,13.89
2018-08-25T02:18:06.202Z,13.84
2018-08-25T02:20:35.570Z,13.82
2018-08-25T02:23:04.943Z,13.84
2018-08-25T02:25:34.340Z,13.79
2018-08-25T02:28:04.155Z,13.74
2018-08-25T02:30:33.601Z,13.71
2018-08-25T02:33:03.349Z,13.70
2018-08-25T02:35:33.613Z,13.67
2018-08-25T02:38:02.955Z,13.69
2018-08-25T02:40:32.742Z,13.64
2018-08-25T02:43:02.191Z,13.62
2018-08-25T02:45:31.543Z,13.61
2018-08-25T02:48:00.940Z,13.61
2018-08-25T02:50:30.717Z,13.60
2018-08-25T02:53:00.076Z,13.57
2018-08-25T02:55:29.494Z,13.50
2018-08-25T02:57:58.859Z,13.45
2018-08-25T03:00:28.649Z,13.45
2018-08-25T03:02:58.056Z,13.43
2018-08-25T03:05:27.706Z,13.38
2018-08-25T03:07:57.026Z,13.32
2018-08-25T03:10:26.415Z,13.28
2018-08-25T03:12:55.808Z,13.27
2018-08-25T03:15:25.702Z,13.23
2018-08-25T03:17:55.065Z,13.20
2018-08-25T03:20:24.406Z,13.22
2018-08-25T03:22:53.918Z,13.20
2018-08-25T03:25:23.706Z,13.20
2018-08-25T03:27:53.049Z,13.15
2018-08-25T03:30:23.792Z,13.11
2018-08-25T03:32:55.027Z,13.12
2018-08-25T03:35:24.395Z,13.14
2018-08-25T03:37:53.900Z,13.16
2018-08-25T03:40:23.324Z,13.17
2018-08-25T03:42:52.716Z,13.20
2018-08-25T03:45:22.127Z,13.22
2018-08-25T03:47:52.023Z,13.27
2018-08-25T03:50:21.438Z,13.27
2018-08-25T03:52:51.775Z,13.33
2018-08-25T03:55:21.187Z,13.36
2018-08-25T03:57:51.774Z,13.39
2018-08-25T04:00:21.190Z,13.41
2018-08-25T04:02:53.865Z,13.38
2018-08-25T04:05:23.221Z,13.38
2018-08-25T04:07:52.578Z,13.33
2018-08-25T04:10:21.944Z,13.25
2018-08-25T04:12:51.694Z,13.20
2018-08-25T04:15:21.190Z,13.18
2018-08-25T04:17:50.820Z,13.12
2018-08-25T04:20:20.189Z,13.12
2018-08-25T04:22:49.519Z,13.18
2018-08-25T04:25:20.503Z,13.22
2018-08-25T04:27:49.933Z,13.26
2018-08-25T04:30:19.286Z,13.24
2018-08-25T04:32:48.646Z,13.26
2018-08-25T04:35:18.553Z,13.28
2018-08-25T04:37:47.987Z,13.31
2018-08-25T04:40:17.350Z,13.35
2018-08-25T04:42:46.707Z,13.39
2018-08-25T04:45:16.586Z,13.43
2018-08-25T04:47:45.965Z,13.44
2018-08-25T04:50:15.391Z,13.43
2018-08-25T04:52:44.746Z,13.45
2018-08-25T04:55:14.588Z,13.45
2018-08-25T04:57:43.994Z,13.48
2018-08-25T05:00:13.402Z,13.45
2018-08-25T05:02:42.806Z,13.46
2018-08-25T05:05:12.522Z,13.47
2018-08-25T05:07:42.176Z,13.44
2018-08-25T05:10:11.534Z,13.43
2018-08-25T05:12:40.938Z,13.43
2018-08-25T05:15:11.560Z,13.41
2018-08-25T05:17:41.501Z,13.37
2018-08-25T05:20:10.876Z,13.38
2018-08-25T05:22:40.248Z,13.38
2018-08-25T05:25:09.749Z,13.36
2018-08-25T05:27:39.150Z,13.41
2018-08-25T05:30:08.868Z,13.41
2018-08-25T05:32:38.206Z,13.42
2018-08-25T05:35:08.091Z,13.40
2018-08-25T05:37:37.503Z,13.34
2018-08-25T05:40:06.866Z,13.30
2018-08-25T05:42:36.249Z,13.32
2018-08-25T05:45:06.049Z,13.31
2018-08-25T05:47:36.355Z,13.39
2018-08-25T05:50:05.898Z,13.41
2018-08-25T05:52:35.756Z,13.47
2018-08-25T05:55:05.143Z,13.45
2018-08-25T05:57:34.538Z,13.47
2018-08-25T06:00:04.094Z,13.46
2018-08-25T06:02:41.509Z,13.51
2018-08-25T06:05:15.793Z,13.60
2018-08-25T06:08:08.637Z,13.61
2018-08-25T06:10:41.669Z,13.67
2018-08-25T06:13:11.067Z,13.71
2018-08-25T06:15:42.576Z,13.71
2018-08-25T06:18:11.934Z,13.71
2018-08-25T06:20:41.304Z,13.72
2018-08-25T06:23:10.780Z,13.84
2018-08-25T06:25:40.615Z,13.85
2018-08-25T06:28:09.992Z,13.92
2018-08-25T06:30:41.227Z,13.95
2018-08-25T06:33:10.596Z,14.01
2018-08-25T06:35:39.963Z,14.08
2018-08-25T06:38:09.319Z,14.25
2018-08-25T06:40:48.065Z,14.42
2018-08-25T06:43:20.782Z,14.50
2018-08-25T06:45:56.162Z,14.50
2018-08-25T06:48:25.496Z,14.47
2018-08-25T06:50:54.884Z,14.49
2018-08-25T06:53:24.824Z,14.54
2018-08-25T06:56:36.245Z,14.66
2018-08-25T06:59:05.618Z,14.74
2018-08-25T07:01:36.771Z,14.73
2018-08-25T07:04:06.143Z,14.73
2018-08-25T07:06:35.533Z,14.65
2018-08-25T07:09:36.048Z,14.68
2018-08-25T07:12:05.523Z,14.73
2018-08-25T07:14:34.935Z,14.82
2018-08-25T07:17:06.496Z,14.80
2018-08-25T07:19:35.977Z,14.80
2018-08-25T07:22:05.332Z,14.87
2018-08-25T07:24:35.559Z,14.90
2018-08-25T07:27:07.930Z,14.93
2018-08-25T07:29:37.959Z,14.94
2018-08-25T07:32:07.980Z,15.02
2018-08-25T07:34:37.434Z,15.13
2018-08-25T07:37:07.394Z,15.14
2018-08-25T07:39:36.854Z,15.11
2018-08-25T07:42:07.494Z,15.12
2018-08-25T07:44:36.854Z,15.21
2018-08-25T07:47:07.512Z,15.18
2018-08-25T07:49:36.932Z,15.06
2018-08-25T07:52:06.378Z,15.10
2018-08-25T07:54:35.738Z,15.04
2018-08-25T07:57:05.123Z,15.14
2018-08-25T07:59:34.511Z,15.25
2018-08-25T08:02:04.216Z,15.22
2018-08-25T08:04:34.046Z,15.23
2018-08-25T08:07:03.583Z,15.11
2018-08-25T08:09:33.402Z,15.13
2018-08-25T08:12:02.771Z,15.22
2018-08-25T08:14:34.031Z,15.30
2018-08-25T08:17:04.089Z,15.40
2018-08-25T08:19:34.968Z,15.43
2018-08-25T08:22:04.327Z,15.46
2018-08-25T08:24:35.849Z,15.48
2018-08-25T08:27:06.390Z,15.42
2018-08-25T08:29:36.048Z,15.43
2018-08-25T08:32:06.414Z,15.47
2018-08-25T08:34:37.293Z,15.56
2018-08-25T08:37:08.333Z,15.65
2018-08-25T08:39:39.811Z,15.66
2018-08-25T08:42:09.657Z,15.65
2018-08-25T08:44:39.962Z,15.76
2018-08-25T08:47:09.299Z,15.93
2018-08-25T08:49:46.597Z,16.07
2018-08-25T08:52:11.346Z,16.19
2018-08-25T08:54:42.870Z,16.32
2018-08-25T08:57:12.265Z,16.39
2018-08-25T08:59:41.640Z,16.45
2018-08-25T09:02:11.015Z,16.58
2018-08-25T09:04:40.817Z,16.57
2018-08-25T09:07:12.154Z,16.61
2018-08-25T09:09:43.401Z,16.58
2018-08-25T09:12:14.669Z,16.60
2018-08-25T09:14:44.074Z,16.62
2018-08-25T09:17:14.416Z,16.76
2018-08-25T09:19:43.819Z,16.63
2018-08-25T09:22:14.525Z,16.67
2018-08-25T09:24:45.676Z,16.66
2018-08-25T09:27:17.145Z,16.61
2018-08-25T09:29:46.559Z,16.46
2018-08-25T09:32:16.379Z,16.44
2018-08-25T09:34:46.422Z,16.57
2018-08-25T09:37:16.792Z,16.64
2018-08-25T09:39:46.171Z,16.71
2018-08-25T09:42:16.978Z,16.76
2018-08-25T09:44:46.330Z,16.74
2018-08-25T09:47:15.994Z,16.83
2018-08-25T09:49:47.593Z,16.95
2018-08-25T09:52:17.598Z,16.95
2018-08-25T09:54:49.263Z,16.87
2018-08-25T09:57:20.655Z,16.82
2018-08-25T09:59:55.006Z,16.62
2018-08-25T10:02:24.696Z,16.43
2018-08-25T10:04:56.011Z,16.14
2018-08-25T10:07:25.529Z,15.97
2018-08-25T10:09:56.883Z,15.93
2018-08-25T10:12:26.556Z,15.99
2018-08-25T10:14:55.902Z,15.95
2018-08-25T10:17:25.294Z,16.06
2018-08-25T10:19:55.947Z,16.05
2018-08-25T10:22:25.330Z,16.08
2018-08-25T10:25:00.084Z,16.10
2018-08-25T10:27:30.964Z,16.10
2018-08-25T10:30:00.684Z,16.10
2018-08-25T10:32:31.995Z,16.11
2018-08-25T10:35:01.864Z,16.06
2018-08-25T10:37:32.067Z,16.01
2018-08-25T10:40:03.218Z,15.96
2018-08-25T10:42:32.628Z,15.89
2018-08-25T10:45:02.196Z,15.81
2018-08-25T10:47:33.607Z,15.76
2018-08-25T10:50:02.964Z,15.68
2018-08-25T10:52:37.305Z,15.57
2018-08-25T10:55:07.914Z,15.56
2018-08-25T10:57:37.278Z,15.55
2018-08-25T11:00:08.181Z,15.51
2018-08-25T11:02:38.946Z,15.51
2018-08-25T11:05:08.652Z,15.49
2018-08-25T11:07:38.632Z,15.38
2018-08-25T11:10:08.940Z,15.25
2018-08-25T11:12:39.202Z,15.11
2018-08-25T11:15:09.620Z,15.04
2018-08-25T11:17:40.090Z,14.95
2018-08-25T11:20:11.803Z,14.81
2018-08-25T11:22:41.294Z,14.70
2018-08-25T11:25:13.223Z,14.58
2018-08-25T11:27:42.775Z,14.56
2018-08-25T11:30:13.463Z,14.57
2018-08-25T11:32:42.874Z,14.61
2018-08-25T11:35:14.334Z,14.65
2018-08-25T11:37:45.349Z,14.58
2018-08-25T11:40:15.580Z,14.56
2018-08-25T11:42:45.376Z,14.57
2018-08-25T11:45:14.914Z,14.79
2018-08-25T11:47:45.262Z,15.01
2018-08-25T11:50:15.171Z,15.17
2018-08-25T11:52:47.067Z,15.36
2018-08-25T11:55:16.452Z,15.42
2018-08-25T11:57:45.887Z,15.44
2018-08-25T12:00:15.258Z,15.46
2018-08-25T12:02:45.057Z,15.51
2018-08-25T12:05:14.978Z,15.52
2018-08-25T12:07:44.332Z,15.37
2018-08-25T12:10:14.034Z,15.12
2018-08-25T12:12:44.904Z,14.94
2018-08-25T12:15:15.206Z,14.84
2018-08-25T12:17:45.155Z,14.60
2018-08-25T12:20:16.641Z,14.48
2018-08-25T12:22:46.752Z,14.57
2018-08-25T12:25:17.965Z,14.69
2018-08-25T12:27:48.272Z,14.78
2018-08-25T12:30:22.561Z,14.84
2018-08-25T12:32:55.242Z,14.83
2018-08-25T12:35:26.736Z,14.97
2018-08-25T12:37:58.292Z,15.15
2018-08-25T12:40:34.812Z,15.19
2018-08-25T12:43:08.157Z,15.17
2018-08-25T12:45:37.592Z,15.25
2018-08-25T12:48:08.482Z,15.40
2018-08-25T12:50:38.479Z,15.44
2018-08-25T12:53:11.381Z,15.41
2018-08-25T12:55:41.411Z,15.33
2018-08-25T12:58:12.866Z,15.33
2018-08-25T13:00:42.270Z,15.32
2018-08-25T13:03:19.645Z,15.33
2018-08-25T13:05:49.915Z,15.21
2018-08-25T13:08:19.829Z,15.08
2018-08-25T13:18:09.547Z,15.08
2018-08-25T13:20:42.917Z,14.63
2018-08-25T13:23:12.335Z,14.48
2018-08-25T13:25:43.320Z,14.48
2018-08-25T13:28:12.710Z,14.47
2018-08-25T13:30:42.926Z,14.47
2018-08-25T13:33:12.295Z,14.37
2018-08-25T13:35:45.216Z,14.35
2018-08-25T13:38:14.656Z,14.31
2018-08-25T13:40:45.557Z,14.16
2018-08-25T13:43:18.323Z,14.03
2018-08-25T13:45:48.389Z,13.98
2018-08-25T13:48:22.645Z,13.90
2018-08-25T13:50:57.856Z,13.83
2018-08-25T13:53:35.446Z,13.80
2018-08-25T14:01:28.485Z,13.82
2018-08-25T14:04:01.555Z,13.47
2018-08-25T14:06:31.884Z,13.50
2018-08-25T14:09:02.150Z,13.52
2018-08-25T14:11:34.402Z,13.51
2018-08-25T14:14:04.131Z,13.60
2018-08-25T14:16:46.771Z,13.67
2018-08-25T14:19:17.859Z,13.80
2018-08-25T14:21:50.361Z,13.97
2018-08-25T14:24:19.978Z,14.16
2018-08-25T14:26:52.835Z,14.31
2018-08-25T14:29:23.886Z,14.27
2018-08-25T14:31:54.735Z,14.37
2018-08-25T14:34:26.656Z,14.33
2018-08-25T14:37:00.027Z,14.33
2018-08-25T14:39:29.521Z,14.35
2018-08-25T14:42:01.262Z,14.48
2018-08-25T14:44:32.507Z,14.39
2018-08-25T14:47:04.414Z,14.47
2018-08-25T14:49:34.255Z,14.56
2018-08-25T14:52:05.011Z,14.61
2018-08-25T14:54:34.407Z,14.68
2018-08-25T14:57:07.611Z,14.83
2018-08-25T14:59:39.457Z,14.93
2018-08-25T15:02:09.653Z,15.01
2018-08-25T15:04:39.280Z,15.02
2018-08-25T15:07:11.443Z,14.95
2018-08-25T15:09:41.334Z,14.99
2018-08-25T15:12:10.775Z,14.91
2018-08-25T15:14:42.431Z,14.85
2018-08-25T15:17:17.086Z,14.84
2018-08-25T15:19:46.499Z,14.79
2018-08-25T15:22:17.057Z,14.61
2018-08-25T15:24:46.426Z,14.55
2018-08-25T15:27:17.434Z,14.55
2018-08-25T15:29:48.831Z,14.58
2018-08-25T15:32:19.326Z,14.61
2018-08-25T15:34:48.727Z,14.61
2018-08-25T15:37:18.615Z,14.60
2018-08-25T15:39:47.949Z,14.61
2018-08-25T15:42:18.946Z,14.69
2018-08-25T15:44:50.558Z,14.71
2018-08-25T15:47:21.121Z,14.71
2018-08-25T15:49:50.520Z,14.66
2018-08-25T15:59:19.482Z,14.38
2018-08-25T16:01:50.201Z,14.43
2018-08-25T16:04:20.200Z,14.30
2018-08-25T16:06:49.588Z,14.32
2018-08-25T16:09:19.364Z,14.27
2018-08-25T16:11:48.735Z,14.32
2018-08-25T16:14:28.247Z,14.31
2018-08-25T16:17:00.559Z,14.22
2018-08-25T16:19:33.378Z,14.30
2018-08-25T16:22:04.208Z,14.15
2018-08-25T16:24:36.606Z,14.15
2018-08-25T16:27:07.060Z,14.11
2018-08-25T16:29:38.092Z,14.11
2018-08-25T16:32:08.385Z,14.08
2018-08-25T16:34:37.717Z,14.19
2018-08-25T16:37:07.119Z,14.26
2018-08-25T16:39:36.975Z,14.23
2018-08-25T16:42:09.820Z,14.23
2018-08-25T16:44:41.444Z,14.14
2018-08-25T16:47:11.050Z,14.20
2018-08-25T16:49:41.884Z,14.32
2018-08-25T16:52:12.178Z,14.34
2018-08-25T16:54:42.857Z,14.26
2018-08-25T16:57:13.072Z,14.22
2018-08-25T16:59:42.463Z,14.18
2018-08-25T17:02:12.181Z,14.16
2018-08-25T17:04:41.962Z,14.05
2018-08-25T17:07:12.127Z,14.02
2018-08-25T17:09:41.490Z,13.95
2018-08-25T17:12:12.147Z,13.97
2018-08-25T17:14:45.936Z,13.94
2018-08-25T17:17:19.419Z,13.93
2018-08-25T17:19:49.309Z,13.91
2018-08-25T17:22:18.692Z,13.83
2018-08-25T17:24:49.267Z,13.80
2018-08-25T17:27:19.246Z,13.80
2018-08-25T17:29:49.134Z,13.74
2018-08-25T17:32:18.496Z,13.68
2018-08-25T17:34:47.829Z,13.62
2018-08-25T17:37:24.438Z,13.54
2018-08-25T17:39:59.564Z,13.50
2018-08-25T17:45:32.871Z,13.50
2018-08-25T17:48:04.117Z,13.40
2018-08-25T17:53:59.434Z,13.41
2018-08-25T17:56:31.638Z,13.44
2018-08-25T17:59:08.938Z,13.43
2018-08-25T18:04:19.051Z,13.38
2018-08-25T18:07:06.077Z,13.35
2018-08-25T18:09:47.200Z,13.27
2018-08-25T18:12:16.591Z,13.19
2018-08-25T18:14:49.552Z,13.09
2018-08-25T18:17:23.668Z,12.99
2018-08-25T18:19:53.107Z,12.92
2018-08-25T18:22:36.734Z,12.91
2018-08-25T18:25:09.967Z,12.89
2018-08-25T18:27:48.063Z,12.83
2018-08-25T18:30:18.217Z,12.77
2018-08-25T18:32:47.616Z,12.74
2018-08-25T18:35:30.481Z,12.69
2018-08-25T18:38:01.922Z,12.57
2018-08-25T18:40:31.284Z,12.52
2018-08-25T18:43:01.831Z,12.47
2018-08-25T18:45:31.217Z,12.45
2018-08-25T18:48:01.532Z,12.38
2018-08-25T18:50:32.809Z,12.33
2018-08-25T18:53:03.886Z,12.33
2018-08-25T18:55:34.227Z,12.29
2018-08-25T18:58:03.702Z,12.22
2018-08-25T19:00:34.123Z,12.23
2018-08-25T19:03:03.468Z,12.16
2018-08-25T19:05:38.990Z,12.17
2018-08-25T19:11:03.243Z,12.17
2018-08-25T19:13:32.658Z,12.12
2018-08-25T19:16:26.654Z,12.12
2018-08-25T19:19:18.307Z,12.03
2018-08-25T19:21:51.666Z,11.97
2018-08-25T19:24:32.084Z,11.97
2018-08-25T19:27:02.742Z,11.96
2018-08-25T19:29:32.201Z,11.95
2018-08-25T19:32:14.336Z,11.88
2018-08-25T19:35:04.568Z,11.86
2018-08-25T19:37:35.422Z,11.90
2018-08-25T19:40:06.608Z,11.89
2018-08-25T19:42:37.725Z,11.83
2018-08-25T19:45:08.175Z,11.80
2018-08-25T19:47:51.878Z,11.79
2018-08-25T19:50:23.995Z,11.80
2018-08-25T19:52:54.995Z,11.81
2018-08-25T19:58:58.168Z,11.75
2018-08-25T20:01:34.953Z,11.76
2018-08-25T20:04:31.994Z,11.75
2018-08-25T20:07:07.526Z,11.72
2018-08-25T20:09:44.722Z,11.69
2018-08-25T20:12:18.162Z,11.68
2018-08-25T20:14:47.545Z,11.64
2018-08-25T20:17:17.736Z,11.67
2018-08-25T20:19:48.539Z,11.64
2018-08-25T20:22:18.792Z,11.60
2018-08-25T20:24:50.141Z,11.59
2018-08-25T20:27:20.032Z,11.63
2018-08-25T20:29:51.770Z,11.59
2018-08-25T20:32:25.344Z,11.60
2018-08-25T20:34:55.811Z,11.61
2018-08-25T20:37:28.221Z,11.58
2018-08-25T20:40:00.159Z,11.61
2018-08-25T20:42:36.322Z,11.57
2018-08-25T20:45:06.771Z,11.55
2018-08-25T20:47:38.054Z,11.49
2018-08-25T20:50:07.604Z,11.49
2018-08-25T20:52:39.522Z,11.48
2018-08-25T20:55:10.667Z,11.47
2018-08-25T20:57:41.350Z,11.42
2018-08-25T21:00:10.787Z,11.41
2018-08-25T21:02:45.183Z,11.45
2018-08-25T21:05:15.464Z,11.47
2018-08-25T21:07:50.262Z,11.47
2018-08-25T21:10:30.294Z,11.47
2018-08-25T21:13:03.124Z,11.47
2018-08-25T21:15:36.386Z,11.42
2018-08-25T21:18:07.261Z,11.41
2018-08-25T21:20:42.528Z,11.44
2018-08-25T21:23:15.755Z,11.39
2018-08-25T21:25:46.963Z,11.37
2018-08-25T21:28:20.559Z,11.37
2018-08-25T21:30:51.377Z,11.38
2018-08-25T21:33:20.798Z,11.47
2018-08-25T21:35:53.955Z,11.49
2018-08-25T21:38:23.333Z,11.52
2018-08-25T21:40:53.163Z,11.48
2018-08-25T21:43:23.082Z,11.53
2018-08-25T21:45:58.264Z,11.52
2018-08-25T21:48:30.443Z,11.57
2018-08-25T21:51:00.362Z,11.55
2018-08-25T21:53:30.566Z,11.49
2018-08-25T21:56:00.016Z,11.51
2018-08-25T21:58:30.394Z,11.50
2018-08-25T22:01:03.223Z,11.45
2018-08-25T22:03:34.285Z,11.45
2018-08-25T22:06:05.216Z,11.40
2018-08-25T22:08:37.072Z,11.33
2018-08-25T22:11:07.367Z,11.34
2018-08-25T22:13:36.761Z,11.32
2018-08-25T22:16:10.002Z,11.30
2018-08-25T22:18:41.186Z,11.35
2018-08-25T22:21:11.049Z,11.35
2018-08-25T22:23:41.958Z,11.34
2018-08-25T22:26:12.319Z,11.35
2018-08-25T22:28:42.938Z,11.35
2018-08-25T22:31:14.874Z,11.36
2018-08-25T22:33:51.320Z,11.36
2018-08-25T22:36:21.185Z,11.36
2018-08-25T22:38:52.307Z,11.34
2018-08-25T22:41:24.955Z,11.33
2018-08-25T22:43:58.774Z,11.31
2018-08-25T22:46:28.637Z,11.33
2018-08-25T22:48:58.850Z,11.31
2018-08-25T22:51:30.295Z,11.29
2018-08-25T22:54:00.165Z,11.29
2018-08-25T22:56:31.704Z,11.33
2018-08-25T22:59:01.134Z,11.29
2018-08-25T23:01:31.302Z,11.24
2018-08-25T23:04:03.140Z,11.27
2018-08-25T23:06:33.374Z,11.26
2018-08-25T23:09:03.526Z,11.26
2018-08-25T23:11:35.191Z,11.29
2018-08-25T23:14:04.591Z,11.31
2018-08-25T23:16:36.597Z,11.26
2018-08-25T23:19:08.394Z,11.26
2018-08-25T23:21:39.209Z,11.26
2018-08-25T23:24:08.570Z,11.29
2018-08-25T23:26:37.926Z,11.28
2018-08-25T23:29:07.663Z,11.28
2018-08-25T23:31:39.863Z,11.27
2018-08-25T23:34:09.263Z,11.24
2018-08-25T23:36:40.267Z,11.20
2018-08-25T23:39:11.111Z,11.16
2018-08-25T23:41:41.120Z,11.14
2018-08-25T23:44:11.278Z,11.13
2018-08-25T23:46:40.677Z,11.07
2018-08-25T23:49:10.503Z,11.10
2018-08-25T23:51:39.890Z,11.13
2018-08-25T23:54:09.268Z,11.08
2018-08-25T23:56:40.692Z,11.07
2018-08-25T23:59:12.880Z,11.08
